Jeffers, Minnesota
Current Conditions -  °F | °C
As of 7:34 PM on Wednesday 26 Nov 2014 (Local Time) from KMWM Reporting Station
Overcast Overcast  
Wind Chill: -9°   Ceiling: 700
Heat Index:   Visibility: 10mi
Dew Point:   Wind: 16mph
Humidity: 85%   Direction: 310°NW
Pressure: 30.35"   Gusts: NA
Location:  44.06°N, 95.2°W
Report Text: KMWM 270134Z AUTO 31014KT 10SM OVC007 M13/M15 A3035 RMK AO2
Loading
Personal Weather Stations






























Interactive Weather Map New forecast layout! Learn more

10-Day Weather Forecast

Advertisements
Track Severe Weather on mobile